Tiempo atmosférico en la estación meteorológica de Garrucha, Puerto, Almería (12 m.)

Fecha
DESCASC
Temp. máxima en grados centígrados (hora)
DESCASC
Temp. mínima en grados centígrados (hora)
DESCASC
Temp. media en grados centígrados
DESCASC
Racha de viento máxima en m/sg (hora)
DESCASC
Velocidad máxima media en intervalos de 10 minutos(hora)
DESCASC
Precipitaciones diarias en mm
DESCASC
Precipitaciones de 00:00 a 06:00 en mm
DESCASC
Precipitaciones de 06:00 a 12:00 en mm
DESCASC
Precipitaciones de 12:00 a 18:00 en mm
DESCASC
Precipitaciones de 18:00 a 24:00 en mm
DESCASC
17-08-2017 29.2 (11:40) 24.6 (05:30) 26.9 6.67 (15:20) 5.83 (15:40) 0 0 0 0 0
16-08-2017 27.2 (14:40) 24.4 (08:00) 25.8 7.78 (14:10) 6.94 (14:10) 0 0 0 0 0
15-08-2017 28.9 (16:40) 24 (00:00) 26.4 9.72 (13:20) 7.5 (13:00) 0 0 0 0 0
14-08-2017 27.4 (14:10) 21.9 (08:10) 24.6 11.67 (16:20) 10 (16:20) 0 0 0 0 0
13-08-2017 27.2 (13:50) 21.2 (00:00) 24.2 12.78 (16:50) 11.39 (16:50) 0 0 0 0 0
12-08-2017 27 (14:10) 21.2 (00:00) 24.1 10.83 (17:30) 9.17 (17:30) 0 0 0 0 0
11-08-2017 27.2 (12:20) 22.3 (00:00) 24.8 9.17 (16:00) 7.78 (16:50) 0 0 0 0 0
10-08-2017 27 (00:00) 24.2 (00:00) 25.6 18.89 (06:50) 15.28 (06:50) 0.2 0.2 0 0 0
09-08-2017 31.2 (11:00) 25.3 (00:00) 28.3 13.33 (18:00) 11.67 (18:10) 0 0 0 0 0
08-08-2017 31.4 (18:30) 24.5 (00:00) 27.9 9.72 (22:50) 7.22 (23:00) 0 0 0 0 0
07-08-2017 29 (13:20) 27.7 (00:00) 28.4 9.17 (22:10) 8.06 (22:30) 0 0 0 0 0
06-08-2017 30.8 (11:10) 25.6 (00:00) 28.2 7.22 (13:10) 6.11 (13:30) 0 0 0 0 0
05-08-2017 31.8 (10:20) 24.8 (00:00) 28.3 7.5 (15:20) 6.94 (15:20) 0 0 0 0 0
04-08-2017 31.1 (12:30) 24.5 (00:00) 27.8 6.11 (17:40) 5.56 (17:40) 0 0 0 0 0
03-08-2017 31 (10:00) 25.9 (00:00) 28.4 9.17 (14:50) 8.61 (14:50) 0 0 0 0 0
02-08-2017 32.4 (17:40) 26 (00:00) 29.2 7.5 (00:10) 5.56 (00:20) 0 0 0 0 0
01-08-2017 29.7 (10:10) 24.7 (00:00) 27.2 10.28 (03:00) 8.61 (03:00) 0 0 0 0 0
31-07-2017 30.8 (10:50) 23.7 (00:00) 27.3 10.83 (20:50) 9.17 (20:50) 0 0 0 0 0
30-07-2017 31 (10:30) 22.9 (00:00) 26.9 8.06 (13:30) 7.22 (13:20) 0 0 0 0 0
29-07-2017 31.7 (10:50) 23.9 (00:00) 27.8 6.67 (15:30) 5.83 (14:30) 0 0 0 0 0
28-07-2017 29.3 (10:20) 22.7 (00:00) 26 8.06 (13:50) 7.22 (13:50) 0 0 0 0 0
27-07-2017 28.2 (12:10) 23.9 (00:00) 26.1 8.06 (16:20) 7.22 (16:20) 0 0 0 0 0
26-07-2017 28.7 (09:50) 25.3 (00:00) 27 10 (16:10) 9.17 (17:10) 0 0 0 0 0
25-07-2017 29 (13:10) 22.8 (00:00) 25.9 7.78 (15:40) 6.67 (15:40) 0 0 0 0 0
24-07-2017 27.9 (10:00) 21.9 (00:00) 24.9 6.94 (16:20) 6.11 (16:20) 0 0 0 0 0
23-07-2017 28.5 (11:10) 24.1 (00:00) 26.3 8.89 (19:10) 7.78 (19:00) 0 0 0 0 0
22-07-2017 28.4 (10:10) 22.2 (00:00) 25.3 6.67 (15:50) 5.56 (15:50) 0 0 0 0 0
21-07-2017 27.9 (09:50) 22.5 (00:00) 25.2 10.28 (17:50) 8.89 (15:20) 0 0 0 0 0
20-07-2017 32.2 (11:10) 22.3 (00:00) 27.3 10.56 (18:10) 9.17 (14:10) 0 0 0 0 0
19-07-2017 28.3 (09:20) 24.3 (00:00) 26.3 16.67 (16:50) 13.61 (16:50) 0 0 0 0 0

Gráficas

Temp. máximas Temp. mínimas Temp. medias Precipitaciones Rachas de viento máximas Velocidades máximas media en intervalos de 10 minutos

Datos horarios

Fecha y hora oficial Temperatura (ºC) Velocidad del viento (km/h) Dirección del viento Racha (km/h) Dirección de racha Precipitación (mm) Presión (hPa) Tendencia (hPa) Humedad (%)
2017-08-17 23:00:00 26.2 5 Noroeste 7 Oeste 0 -- -- 86
2017-08-17 22:00:00 26.2 4 Norte 7 Norte 0 -- -- 86
2017-08-17 21:00:00 26.8 3 Este 7 Nordeste 0 -- -- 84
2017-08-17 20:00:00 28.2 4 Nordeste 12 Nordeste 0 -- -- 79
2017-08-17 19:00:00 27.9 9 Este 17 Este 0 -- -- 80
2017-08-17 18:00:00 27.3 13 Este 21 Este 0 -- -- 82
2017-08-17 17:00:00 27.1 17 Este 23 Este 0 -- -- 82
2017-08-17 16:00:00 27.1 19 Este 24 Este 0 -- -- 82
2017-08-17 15:00:00 27.6 19 Este 23 Este 0 -- -- 78
2017-08-17 14:00:00 29.1 17 Este 22 Este 0 -- -- 76
2017-08-17 13:00:00 29.2 14 Nordeste 17 Nordeste 0 -- -- 74
2017-08-17 12:00:00 29 14 Nordeste 17 Nordeste 0 -- -- 73
2017-08-17 11:00:00 28.1 4 Nordeste 9 Nordeste 0 -- -- 81
2017-08-17 10:00:00 27 4 Norte 10 Noroeste 0 -- -- 82
2017-08-17 09:00:00 25.5 8 Noroeste 12 Noroeste 0 -- -- 83
2017-08-17 08:00:00 24.6 7 Noroeste 11 Oeste 0 -- -- 84
2017-08-17 07:00:00 24.7 6 Oeste 13 Oeste 0 -- -- 84
2017-08-17 06:00:00 24.6 10 Oeste 13 Oeste 0 -- -- 84
2017-08-17 05:00:00 24.7 6 Noroeste 9 Oeste 0 -- -- 85
2017-08-17 04:00:00 25.5 3 Noroeste 5 Noroeste 0 -- -- 81
2017-08-17 03:00:00 25.3 3 Oeste 6 Noroeste 0 -- -- 81
2017-08-17 02:00:00 26.3 2 Sur 4 Sur 0 -- -- 80
2017-08-17 01:00:00 26.3 3 Sudoeste 6 Sudoeste 0 -- -- 78
2017-08-17 00:00:00 26.5 3 Sur 8 Sudeste 0 -- -- 77
2017-08-16 23:00:00 26.9 7 Sudeste 12 Sudeste 0 -- -- 80
2017-08-16 22:00:00 26.8 10 Sudeste 18 Sur 0 -- -- 78
2017-08-16 21:00:00 26.7 15 Sur 19 Sudeste 0 -- -- 82
2017-08-16 20:00:00 27 17 Sudeste 20 Sudeste 0 -- -- 82
2017-08-16 19:00:00 27.1 17 Sudeste 22 Sudeste 0 -- -- 80
2017-08-16 18:00:00 27.1 18 Sudeste 23 Sudeste 0 -- -- 82
2017-08-16 17:00:00 27.2 19 Sudeste 24 Sudeste 0 -- -- 81
2017-08-16 16:00:00 27 22 Sudeste 25 Sudeste 0 -- -- 84
2017-08-16 15:00:00 27.1 21 Sudeste 28 Sudeste 0 -- -- 85
2017-08-16 14:00:00 26.9 24 Sudeste 27 Sudeste 0 -- -- 84
2017-08-16 13:00:00 26.9 16 Sudeste 20 Sudeste 0 -- -- 84
2017-08-16 12:00:00 26.8 14 Sudeste 17 Sudeste 0 -- -- 83
2017-08-16 11:00:00 26.5 13 Sudeste 15 Sudeste 0 -- -- 84
2017-08-16 10:00:00 26.7 6 Sudeste 13 Oeste 0 -- -- 82
2017-08-16 09:00:00 25.4 8 Oeste 12 Sudoeste 0 -- -- 87
2017-08-16 08:00:00 24.4 10 Sudoeste 15 Sur 0 -- -- 88
2017-08-16 07:00:00 25.8 15 Sur 18 Sur 0 -- -- 85
2017-08-16 06:00:00 25 0 Calma 7 Oeste 0 -- -- 89
2017-08-16 05:00:00 25 7 Sudoeste 9 Sudoeste 0 -- -- 90
2017-08-16 04:00:00 25.5 9 Sur 17 Sur 0 -- -- 90
2017-08-16 03:00:00 25.7 5 Sudoeste 7 Sudoeste 0 -- -- 91
2017-08-16 02:00:00 25.8 4 Noroeste 6 Oeste 0 -- -- 90
2017-08-16 01:00:00 26 0 Calma 6 Sur 0 -- -- 90
2017-08-16 00:00:00 26.1 4 Sudeste 10 Sudeste 0 -- -- 90
2017-08-15 23:00:00 26.2 10 Sudeste 18 Sudeste 0 -- -- 89
2017-08-15 22:00:00 26.3 14 Sudeste 18 Sudeste 0 -- -- 89
2017-08-15 21:00:00 26.6 7 Sudeste 10 Este 0 -- -- 87
2017-08-15 20:00:00 27.3 5 Este 12 Este 0 -- -- 84
2017-08-15 19:00:00 27.5 7 Este 17 Nordeste 0 -- -- 83
2017-08-15 18:00:00 27.7 16 Este 19 Este 0 -- -- 82
2017-08-15 17:00:00 28.6 15 Este 24 Este 0 -- -- 79
2017-08-15 16:00:00 27.4 21 Este 28 Este 0 -- -- 82
2017-08-15 15:00:00 27.3 24 Este 28 Este 0 -- -- 81
2017-08-15 14:00:00 28.1 21 Este 35 Nordeste 0 -- -- 79
2017-08-15 13:00:00 28.2 27 Este 32 Nordeste 0 -- -- 75
2017-08-15 12:00:00 28.2 25 Este 30 Nordeste 0 -- -- 66
2017-08-15 11:00:00 28.5 6 Nordeste 15 Norte 0 -- -- 60
2017-08-15 10:00:00 27 7 Noroeste 15 Noroeste 0 -- -- 66
2017-08-15 09:00:00 25 7 Noroeste 10 Oeste 0 -- -- 67
2017-08-15 08:00:00 24.4 5 Sudoeste 10 Noroeste 0 -- -- 70
2017-08-15 07:00:00 24.5 5 Noroeste 24 Norte 0 -- -- 66
2017-08-15 06:00:00 24.9 14 Norte 22 Norte 0 -- -- 68
2017-08-15 05:00:00 24.4 10 Noroeste 19 Noroeste 0 -- -- 73
2017-08-15 04:00:00 24.2 12 Noroeste 24 Noroeste 0 -- -- 73
2017-08-15 03:00:00 24.1 10 Noroeste 17 Noroeste 0 -- -- 76
2017-08-15 02:00:00 24.3 12 Noroeste 17 Noroeste 0 -- -- 77
2017-08-15 01:00:00 25.4 4 Noroeste 14 Norte 0 -- -- 76
2017-08-15 00:00:00 25.9 13 Nordeste 27 Nordeste 0 -- -- 79
2017-08-14 23:00:00 26.1 23 Nordeste 32 Nordeste 0 -- -- 79
2017-08-14 22:00:00 26.1 16 Nordeste 28 Nordeste 0 -- -- 78
2017-08-14 21:00:00 26.1 15 Nordeste 23 Nordeste 0 -- -- 80
2017-08-14 20:00:00 26.6 15 Nordeste 29 Nordeste 0 -- -- 78
2017-08-14 19:00:00 26.9 24 Nordeste 37 Este 0 -- -- 79
2017-08-14 18:00:00 27.2 28 Este 39 Este 0 -- -- 78
2017-08-14 17:00:00 27.1 30 Este 42 Nordeste 0 -- -- 77
2017-08-14 16:00:00 27.3 34 Este 40 Nordeste 0 -- -- 76
2017-08-14 15:00:00 27 33 Este 38 Nordeste 0 -- -- 75
2017-08-14 14:00:00 27 24 Nordeste 30 Este 0 -- -- 76
2017-08-14 13:00:00 27.1 25 Nordeste 32 Nordeste 0 -- -- 72
2017-08-14 12:00:00 26.9 23 Nordeste 33 Nordeste 0 -- -- 72
2017-08-14 11:00:00 26.3 24 Nordeste 34 Nordeste 0 -- -- 73
2017-08-14 10:00:00 25.7 10 Norte 21 Noroeste 0 -- -- 64
2017-08-14 09:00:00 24 14 Norte 21 Norte 0 -- -- 69
2017-08-14 08:00:00 22 13 Noroeste 18 Noroeste 0 -- -- 76
2017-08-14 07:00:00 22.9 14 Noroeste 21 Norte 0 -- -- 75
2017-08-14 06:00:00 23 15 Noroeste 25 Noroeste 0 -- -- 76
2017-08-14 05:00:00 22.9 13 Noroeste 19 Norte 0 -- -- 74
2017-08-14 04:00:00 23.2 12 Noroeste 23 Noroeste 0 -- -- 73
2017-08-14 03:00:00 23.9 15 Noroeste 22 Norte 0 -- -- 75
2017-08-14 02:00:00 24.2 14 Noroeste 22 Norte 0 -- -- 74
2017-08-14 01:00:00 24.8 11 Norte 31 Nordeste 0 -- -- 72
2017-08-14 00:00:00 25.5 23 Nordeste 33 Nordeste 0 -- -- 76
2017-08-13 23:00:00 25.4 29 Nordeste 37 Nordeste 0 -- -- 80
2017-08-13 22:00:00 25.4 28 Nordeste 37 Nordeste 0 -- -- 80
2017-08-13 21:00:00 25.5 31 Nordeste 37 Nordeste 0 -- -- 79
2017-08-13 20:00:00 26.1 27 Nordeste 41 Nordeste 0 -- -- 77
2017-08-13 19:00:00 26.4 33 Nordeste 39 Nordeste 0 -- -- 76
2017-08-13 18:00:00 26.4 35 Nordeste 45 Nordeste 0 -- -- 75
2017-08-13 17:00:00 26.8 38 Nordeste 46 Este 0 -- -- 75
2017-08-13 16:00:00 26.9 33 Este 40 Nordeste 0 -- -- 74
2017-08-13 15:00:00 27 31 Este 38 Este 0 -- -- 73
2017-08-13 14:00:00 27.2 27 Nordeste 34 Nordeste 0 -- -- 72
2017-08-13 13:00:00 27 26 Nordeste 32 Nordeste 0 -- -- 68
2017-08-13 12:00:00 26.7 21 Nordeste 28 Nordeste 0 -- -- 68
2017-08-13 11:00:00 26.3 18 Nordeste 30 Nordeste 0 -- -- 70
2017-08-13 10:00:00 25 6 Norte 22 Noroeste 0 -- -- 68
2017-08-13 09:00:00 22.7 13 Noroeste 19 Noroeste 0 -- -- 75
2017-08-13 08:00:00 21.5 12 Noroeste 18 Noroeste 0 -- -- 78
2017-08-13 07:00:00 21.6 12 Noroeste 16 Noroeste 0 -- -- 80
2017-08-13 06:00:00 21.7 10 Noroeste 23 Norte 0 -- -- 81
2017-08-13 05:00:00 21.7 12 Noroeste 19 Noroeste 0 -- -- 81
2017-08-13 04:00:00 22.3 14 Noroeste 20 Noroeste 0 -- -- 80
2017-08-13 03:00:00 22.9 11 Noroeste 15 Noroeste 0 -- -- 80
2017-08-13 02:00:00 23.5 8 Noroeste 19 Norte 0 -- -- 78
2017-08-13 01:00:00 24.9 18 Norte 28 Nordeste 0 -- -- 75
2017-08-13 00:00:00 25.4 19 Nordeste 30 Nordeste 0 -- -- 77
2017-08-12 23:00:00 25.3 15 Nordeste 24 Nordeste 0 -- -- 79
2017-08-12 22:00:00 25.1 15 Nordeste 25 Nordeste 0 -- -- 79
2017-08-12 21:00:00 25.5 15 Nordeste 23 Nordeste 0 -- -- 77
2017-08-12 20:00:00 26.8 14 Nordeste 26 Este 0 -- -- 71
2017-08-12 19:00:00 26.6 23 Este 31 Este 0 -- -- 72
2017-08-12 18:00:00 25.9 28 Este 39 Este 0 -- -- 71
2017-08-12 17:00:00 26.1 28 Este 37 Este 0 -- -- 67
2017-08-12 16:00:00 25.8 27 Este 34 Este 0 -- -- 72
2017-08-12 15:00:00 26.6 28 Este 34 Este 0 -- -- 71
2017-08-12 14:00:00 26.9 28 Nordeste 35 Este 0 -- -- 67
2017-08-12 13:00:00 26.8 22 Nordeste 36 Nordeste 0 -- -- 64
2017-08-12 12:00:00 26.5 22 Nordeste 34 Nordeste 0 -- -- 66
2017-08-12 11:00:00 26 22 Nordeste 31 Nordeste 0 -- -- 69
2017-08-12 10:00:00 24.9 12 Norte 27 Norte 0 -- -- 67
2017-08-12 09:00:00 23 16 Noroeste 22 Noroeste 0 -- -- 70
2017-08-12 08:00:00 21.8 17 Noroeste 22 Noroeste 0 -- -- 76
2017-08-12 07:00:00 21.4 13 Noroeste 19 Noroeste 0 -- -- 79
2017-08-12 06:00:00 21.4 11 Noroeste 15 Noroeste 0 -- -- 78
2017-08-12 05:00:00 21.9 10 Noroeste 18 Noroeste 0 -- -- 78
2017-08-12 04:00:00 22.6 15 Noroeste 21 Noroeste 0 -- -- 75
2017-08-12 03:00:00 23.6 13 Noroeste 18 Norte 0 -- -- 71
2017-08-12 02:00:00 24.1 12 Norte 20 Norte 0 -- -- 66
2017-08-12 01:00:00 24.5 15 Noroeste 30 Nordeste 0 -- -- 74
2017-08-12 00:00:00 25.3 24 Nordeste 32 Nordeste 0 -- -- 73
2017-08-11 23:00:00 25.1 19 Nordeste 27 Nordeste 0 -- -- 78
2017-08-11 22:00:00 25.1 15 Nordeste 24 Nordeste 0 -- -- 77
2017-08-11 21:00:00 25.3 17 Nordeste 28 Nordeste 0 -- -- 75
2017-08-11 20:00:00 26.3 21 Nordeste 29 Nordeste 0 -- -- 72
2017-08-11 19:00:00 26.6 20 Nordeste 28 Nordeste 0 -- -- 69
2017-08-11 18:00:00 26.8 22 Este 30 Nordeste 0 -- -- 70
2017-08-11 17:00:00 26.6 26 Este 33 Este 0 -- -- 70
2017-08-11 16:00:00 26.3 26 Este 33 Este 0 -- -- 71
2017-08-11 15:00:00 25.6 23 Este 30 Este 0 -- -- 68
2017-08-11 14:00:00 27.1 24 Nordeste 32 Nordeste 0 -- -- 60
2017-08-11 13:00:00 26.9 22 Nordeste 30 Nordeste 0 -- -- 58
2017-08-11 12:00:00 26.7 14 Nordeste 26 Nordeste 0 -- -- 65
2017-08-11 11:00:00 26.7 18 Nordeste 24 Nordeste 0 -- -- 68
2017-08-11 10:00:00 25.4 8 Norte 16 Noroeste 0 -- -- 68
2017-08-11 09:00:00 23.9 9 Noroeste 15 Norte 0 -- -- 71
2017-08-11 08:00:00 22.3 10 Noroeste 15 Noroeste 0 -- -- 79
2017-08-11 07:00:00 22.9 12 Noroeste 17 Noroeste 0 -- -- 77
2017-08-11 06:00:00 23.2 10 Noroeste 14 Noroeste 0 -- -- 76
2017-08-11 05:00:00 24.2 9 Norte 16 Noroeste 0 -- -- 73
2017-08-11 04:00:00 24.2 11 Norte 24 Nordeste 0 -- -- 76
2017-08-11 03:00:00 24.8 14 Nordeste 25 Nordeste 0 -- -- 79
2017-08-11 02:00:00 24.7 18 Nordeste 29 Nordeste 0 -- -- 78
2017-08-11 01:00:00 24.7 21 Nordeste 32 Nordeste 0 -- -- 80
2017-08-11 00:00:00 24.7 23 Nordeste 32 Nordeste 0 -- -- 80
2017-08-10 23:00:00 24.5 21 Nordeste 30 Nordeste 0 -- -- 80
2017-08-10 22:00:00 24.3 22 Nordeste 32 Nordeste 0 -- -- 81
2017-08-10 21:00:00 24.3 24 Nordeste 33 Nordeste 0 -- -- 81
2017-08-10 20:00:00 24.6 25 Nordeste 40 Este 0 -- -- 82
2017-08-10 19:00:00 24.9 33 Nordeste 43 Nordeste 0 -- -- 80
2017-08-10 18:00:00 25.6 39 Nordeste 48 Este 0 -- -- 77
2017-08-10 17:00:00 25.6 42 Este 50 Este 0 -- -- 80
2017-08-10 16:00:00 25.9 40 Este 47 Este 0 -- -- 75
2017-08-10 15:00:00 25.9 30 Nordeste 39 Este 0 -- -- 72
2017-08-10 14:00:00 25.2 28 Nordeste 40 Nordeste 0 -- -- 74
2017-08-10 13:00:00 24.7 33 Nordeste 45 Nordeste 0 -- -- 75
2017-08-10 12:00:00 25.1 28 Nordeste 38 Nordeste 0 -- -- 74
2017-08-10 11:00:00 25.1 28 Nordeste 46 Nordeste 0 -- -- 76
2017-08-10 10:00:00 24.9 33 Nordeste 54 Nordeste 0 -- -- 76
2017-08-10 09:00:00 24.7 43 Nordeste 57 Nordeste 0 -- -- 80
2017-08-10 08:00:00 24.7 42 Nordeste 61 Nordeste 0 -- -- 81
2017-08-10 07:00:00 24.8 48 Nordeste 68 Nordeste 0 -- -- 84
2017-08-10 06:00:00 25.2 46 Nordeste 61 Nordeste 0 -- -- 84
2017-08-10 05:00:00 25.9 44 Nordeste 62 Nordeste 0.2 -- -- 81
2017-08-10 04:00:00 26.1 8 Noroeste 14 Noroeste 0 -- -- 82
2017-08-10 03:00:00 25.9 11 Noroeste 15 Noroeste 0 -- -- 84
2017-08-10 02:00:00 26.2 6 Noroeste 12 Norte 0 -- -- 86
2017-08-10 01:00:00 26.4 9 Norte 19 Norte 0 -- -- 85
2017-08-10 00:00:00 27 13 Nordeste 24 Nordeste 0 -- -- 85
2017-08-09 23:00:00 27.3 7 Sudoeste 29 Sudeste 0 -- -- 81
2017-08-09 22:00:00 27 26 Sudeste 35 Sudeste 0 -- -- 85
2017-08-09 21:00:00 27.1 31 Sudeste 39 Sudeste 0 -- -- 85
2017-08-09 20:00:00 27.7 35 Sudeste 45 Sudeste 0 -- -- 84
2017-08-09 19:00:00 27.5 40 Sur 48 Sur 0 -- -- 83
2017-08-09 18:00:00 27.2 41 Sur 48 Sur 0 -- -- 88
2017-08-09 17:00:00 27.7 37 Sudeste 43 Sudeste 0 -- -- 85
2017-08-09 16:00:00 28 33 Sudeste 38 Sudeste 0 -- -- 79
2017-08-09 15:00:00 28 27 Sudeste 31 Sudeste 0 -- -- 77
2017-08-09 14:00:00 28.3 22 Sudeste 26 Sudeste 0 -- -- 71
2017-08-09 13:00:00 28.9 16 Sudeste 21 Este 0 -- -- 66
2017-08-09 12:00:00 29.1 12 Este 14 Este 0 -- -- 65
2017-08-09 11:00:00 31.2 6 Nordeste 14 Nordeste 0 -- -- 56
2017-08-09 10:00:00 28.4 9 Norte 18 Noroeste 0 -- -- 61
2017-08-09 09:00:00 27 13 Norte 20 Noroeste 0 -- -- 68
2017-08-09 08:00:00 26 9 Noroeste 18 Noroeste 0 -- -- 73
2017-08-09 07:00:00 25.8 10 Noroeste 15 Noroeste 0 -- -- 74
2017-08-09 06:00:00 25.5 12 Noroeste 17 Noroeste 0 -- -- 76
2017-08-09 05:00:00 25.6 12 Noroeste 19 Noroeste 0 -- -- 75
2017-08-09 04:00:00 26.6 15 Noroeste 24 Norte 0 -- -- 72
2017-08-09 03:00:00 27.3 11 Noroeste 31 Nordeste 0 -- -- 70
2017-08-09 02:00:00 28.1 24 Nordeste 34 Nordeste 0 -- -- 73
2017-08-09 01:00:00 28.4 27 Nordeste 36 Nordeste 0 -- -- 81
2017-08-09 00:00:00 28.7 24 Nordeste 33 Nordeste 0 -- -- 80
2017-08-08 23:00:00 28.8 26 Nordeste 35 Nordeste 0 -- -- 79
2017-08-08 22:00:00 28.5 14 Nordeste 23 Nordeste 0 -- -- 84
2017-08-08 21:00:00 28.8 15 Nordeste 29 Nordeste 0 -- -- 85
2017-08-08 20:00:00 29.8 18 Nordeste 24 Nordeste 0 -- -- 81
2017-08-08 19:00:00 30.5 16 Nordeste 23 Nordeste 0 -- -- 79
2017-08-08 18:00:00 30.5 16 Nordeste 24 Nordeste 0 -- -- 79
2017-08-08 17:00:00 30.6 14 Norte 22 Norte 0 -- -- 78
2017-08-08 16:00:00 30.3 4 Norte 13 Nordeste 0 -- -- 82
2017-08-08 15:00:00 29 12 Este 28 Nordeste 0 -- -- 85
2017-08-08 14:00:00 30 24 Nordeste 30 Nordeste 0 -- -- 81
2017-08-08 13:00:00 30 14 Nordeste 20 Nordeste 0 -- -- 81
2017-08-08 12:00:00 30.9 10 Nordeste 15 Nordeste 0 -- -- 76
2017-08-08 11:00:00 29.5 14 Este 15 Este 0 -- -- 76
2017-08-08 10:00:00 30.1 0 Calma 10 Noroeste 0 -- -- 70
2017-08-08 09:00:00 26.4 5 Noroeste 13 Oeste 0 -- -- 77
2017-08-08 08:00:00 25.3 8 Noroeste 14 Noroeste 0 -- -- 86
2017-08-08 07:00:00 24.7 6 Noroeste 15 Noroeste 0 -- -- 88
2017-08-08 06:00:00 27.1 12 Sur 16 Sur 0 -- -- 88
2017-08-08 05:00:00 25.7 8 Oeste 18 Oeste 0 -- -- 88
2017-08-08 04:00:00 26.3 6 Noroeste 9 Noroeste 0 -- -- 88
2017-08-08 03:00:00 27.1 3 Noroeste 12 Sur 0 -- -- 86
2017-08-08 02:00:00 27.1 2 Oeste 14 Noroeste 0 -- -- 86
2017-08-08 01:00:00 27.4 6 Oeste 17 Sudeste 0 -- -- 85
2017-08-08 00:00:00 27.9 20 Sur 28 Sur 0 -- -- 87
2017-08-07 23:00:00 27.9 21 Sur 33 Sudeste 0 -- -- 86
2017-08-07 22:00:00 28.2 25 Sudeste 28 Sudeste 0 -- -- 84
2017-08-07 21:00:00 28 12 Sur 20 Sudeste 0 -- -- 84
2017-08-07 20:00:00 28.5 13 Este 20 Este 0 -- -- 83
2017-08-07 19:00:00 28.3 16 Este 25 Sudeste 0 -- -- 83
2017-08-07 18:00:00 28.2 18 Sudeste 23 Sudeste 0 -- -- 84
2017-08-07 17:00:00 28.7 20 Sudeste 27 Sudeste 0 -- -- 83
2017-08-07 16:00:00 28.6 21 Sudeste 27 Sudeste 0 -- -- 83
2017-08-07 15:00:00 28.4 22 Sudeste 27 Sudeste 0 -- -- 83
2017-08-07 14:00:00 29 18 Este 24 Este 0 -- -- 78
2017-08-07 13:00:00 28.8 17 Este 22 Este 0 -- -- 81
2017-08-07 12:00:00 28.8 15 Este 18 Este 0 -- -- 81
2017-08-07 11:00:00 28.4 13 Este 21 Este 0 -- -- 81
2017-08-07 10:00:00 27.8 13 Este 21 Este 0 -- -- 85
2017-08-07 09:00:00 27.9 14 Este 19 Este 0 -- -- 85
2017-08-07 08:00:00 27.7 12 Este 15 Este 0 -- -- 84
2017-08-07 07:00:00 27.8 11 Este 14 Este 0 -- -- 84
2017-08-07 06:00:00 28 9 Este 13 Este 0 -- -- 85
2017-08-07 05:00:00 28 8 Nordeste 15 Nordeste 0 -- -- 84
2017-08-07 04:00:00 28.1 9 Nordeste 15 Nordeste 0 -- -- 85
2017-08-07 03:00:00 28.1 9 Nordeste 15 Nordeste 0 -- -- 85
2017-08-07 02:00:00 28.1 9 Nordeste 13 Nordeste 0 -- -- 84
2017-08-07 01:00:00 28.1 6 Nordeste 12 Norte 0 -- -- 83
2017-08-07 00:00:00 28.2 6 Nordeste 14 Nordeste 0 -- -- 82
2017-08-06 23:00:00 28.3 8 Nordeste 14 Este 0 -- -- 82
2017-08-06 22:00:00 28.5 9 Este 14 Nordeste 0 -- -- 82
2017-08-06 21:00:00 28.5 11 Nordeste 17 Nordeste 0 -- -- 81
2017-08-06 20:00:00 29.4 14 Nordeste 20 Este 0 -- -- 79
2017-08-06 19:00:00 30 16 Este 21 Este 0 -- -- 78
2017-08-06 18:00:00 29.1 14 Este 21 Este 0 -- -- 81
2017-08-06 17:00:00 28.9 17 Este 22 Este 0 -- -- 82
2017-08-06 16:00:00 29.1 17 Este 23 Este 0 -- -- 80
2017-08-06 15:00:00 29.1 19 Este 24 Este 0 -- -- 81
2017-08-06 14:00:00 29.3 20 Este 26 Este 0 -- -- 79
2017-08-06 13:00:00 29.7 21 Este 25 Este 0 -- -- 79
2017-08-06 12:00:00 30.4 16 Este 19 Este 0 -- -- 77
2017-08-06 11:00:00 30.6 8 Nordeste 14 Nordeste 0 -- -- 74
2017-08-06 10:00:00 29 4 Norte 12 Noroeste 0 -- -- 75
2017-08-06 09:00:00 26.8 5 Noroeste 13 Oeste 0 -- -- 80
2017-08-06 08:00:00 25.9 12 Oeste 14 Oeste 0 -- -- 84
2017-08-06 07:00:00 25.7 11 Oeste 16 Oeste 0 -- -- 87
2017-08-06 06:00:00 26.5 9 Oeste 13 Oeste 0 -- -- 89
2017-08-06 05:00:00 26.5 9 Oeste 12 Oeste 0 -- -- 90
2017-08-06 04:00:00 26.6 6 Noroeste 8 Oeste 0 -- -- 91
2017-08-06 03:00:00 27.4 5 Oeste 7 Oeste 0 -- -- 90
2017-08-06 02:00:00 27.7 5 Oeste 7 Sudoeste 0 -- -- 89
2017-08-06 01:00:00 28 3 Sur 5 Sudoeste 0 -- -- 87
2017-08-06 00:00:00 28.3 5 Sudeste 9 Sudeste 0 -- -- 88
2017-08-05 23:00:00 28.5 10 Este 13 Este 0 -- -- 87
2017-08-05 22:00:00 28.5 11 Este 19 Este 0 -- -- 87
2017-08-05 21:00:00 28.6 19 Este 26 Sudeste 0 -- -- 88
2017-08-05 20:00:00 28.9 25 Sudeste 27 Este 0 -- -- 87
2017-08-05 19:00:00 28.8 23 Sudeste 24 Sudeste 0 -- -- 85
2017-08-05 18:00:00 29.1 19 Sudeste 26 Este 0 -- -- 84
2017-08-05 17:00:00 29 24 Sudeste 26 Sudeste 0 -- -- 83
2017-08-05 16:00:00 29 24 Sudeste 27 Sudeste 0 -- -- 82
2017-08-05 15:00:00 29.2 23 Sudeste 26 Sudeste 0 -- -- 79
2017-08-05 14:00:00 29.3 20 Este 22 Este 0 -- -- 73
2017-08-05 13:00:00 29.2 17 Este 21 Este 0 -- -- 72
2017-08-05 12:00:00 28.8 18 Este 21 Este 0 -- -- 76
2017-08-05 11:00:00 29.7 8 Este 9 Este 0 -- -- 59
2017-08-05 10:00:00 30.9 3 Nordeste 10 Oeste 0 -- -- 49
2017-08-05 09:00:00 26.3 6 Noroeste 12 Oeste 0 -- -- 56
2017-08-05 08:00:00 25.7 6 Oeste 12 Oeste 0 -- -- 58
2017-08-05 07:00:00 24.9 6 Oeste 11 Oeste 0 -- -- 58
2017-08-05 06:00:00 26 3 Oeste 9 Oeste 0 -- -- 58
2017-08-05 05:00:00 25.9 5 Sudoeste 9 Oeste 0 -- -- 62
2017-08-05 04:00:00 25.9 8 Oeste 12 Oeste 0 -- -- 63
2017-08-05 03:00:00 26.6 2 Noroeste 9 Oeste 0 -- -- 70
2017-08-05 02:00:00 26.7 6 Oeste 9 Oeste 0 -- -- 70
2017-08-05 01:00:00 27.9 2 Sudoeste 4 Sur 0 -- -- 74
2017-08-05 00:00:00 28.4 3 Sur 9 Sur 0 -- -- 74
2017-08-04 23:00:00 28.6 6 Sur 7 Sur 0 -- -- 72
2017-08-04 22:00:00 28.6 4 Sudeste 8 Sudeste 0 -- -- 74
2017-08-04 21:00:00 28.8 5 Sudeste 12 Sudeste 0 -- -- 71
2017-08-04 20:00:00 29.5 10 Sudeste 13 Este 0 -- -- 68
2017-08-04 19:00:00 29.7 12 Sudeste 19 Sudeste 0 -- -- 68
2017-08-04 18:00:00 28.9 18 Sudeste 22 Sudeste 0 -- -- 75
2017-08-04 17:00:00 28.7 17 Sudeste 22 Sudeste 0 -- -- 81
2017-08-04 16:00:00 28.6 17 Sudeste 19 Sudeste 0 -- -- 83
2017-08-04 15:00:00 29.6 13 Sudeste 17 Este 0 -- -- 79
2017-08-04 14:00:00 29.4 12 Este 17 Este 0 -- -- 85
2017-08-04 13:00:00 30.5 12 Este 17 Nordeste 0 -- -- 79
2017-08-04 12:00:00 31 6 Nordeste 15 Este 0 -- -- 77
2017-08-04 11:00:00 30.3 12 Nordeste 14 Nordeste 0 -- -- 79
2017-08-04 10:00:00 29.7 9 Nordeste 12 Norte 0 -- -- 79
2017-08-04 09:00:00 29.7 0 Calma 12 Oeste 0 -- -- 58
2017-08-04 08:00:00 26.9 5 Oeste 15 Noroeste 0 -- -- 51
2017-08-04 07:00:00 25.4 11 Noroeste 19 Noroeste 0 -- -- 63
2017-08-04 06:00:00 24.7 15 Noroeste 19 Noroeste 0 -- -- 74
2017-08-04 05:00:00 26 14 Oeste 17 Oeste 0 -- -- 75
2017-08-04 04:00:00 26.4 7 Oeste 9 Oeste 0 -- -- 84
2017-08-04 03:00:00 26.5 6 Noroeste 8 Noroeste 0 -- -- 84
2017-08-04 02:00:00 27.7 0 Calma 4 Nordeste 0 -- -- 85
2017-08-04 01:00:00 27.5 2 Norte 7 Norte 0 -- -- 82
2017-08-04 00:00:00 28 3 Noroeste 6 Noroeste 0 -- -- 81
2017-08-03 23:00:00 28.1 3 Norte 11 Norte 0 -- -- 84
2017-08-03 22:00:00 28.5 5 Norte 11 Nordeste 0 -- -- 82
2017-08-03 21:00:00 28.9 11 Nordeste 22 Este 0 -- -- 80
2017-08-03 20:00:00 28.9 20 Este 24 Este 0 -- -- 80
2017-08-03 19:00:00 29.1 22 Sudeste 31 Sudeste 0 -- -- 79
2017-08-03 18:00:00 28.7 27 Sudeste 31 Sudeste 0 -- -- 81
2017-08-03 17:00:00 28.6 26 Sudeste 31 Sudeste 0 -- -- 82
2017-08-03 16:00:00 28.6 24 Sudeste 30 Sudeste 0 -- -- 80
2017-08-03 15:00:00 28.1 28 Sudeste 33 Sudeste 0 -- -- 84
2017-08-03 14:00:00 28.1 27 Sudeste 30 Sudeste 0 -- -- 84
2017-08-03 13:00:00 28.2 21 Sudeste 23 Sudeste 0 -- -- 84
2017-08-03 12:00:00 28.8 12 Sudeste 15 Sudeste 0 -- -- 77
2017-08-03 11:00:00 29.4 10 Este 12 Este 0 -- -- 67
2017-08-03 10:00:00 31 0 Calma 8 Oeste 0 -- -- 59
2017-08-03 09:00:00 27.5 7 Oeste 12 Sudoeste 0 -- -- 66
2017-08-03 08:00:00 26.4 6 Sudoeste 13 Oeste 0 -- -- 72
2017-08-03 07:00:00 26.6 11 Oeste 15 Oeste 0 -- -- 72
2017-08-03 06:00:00 26.3 4 Sur 13 Oeste 0 -- -- 76
2017-08-03 05:00:00 26.8 5 Sudoeste 18 Oeste 0 -- -- 75
2017-08-03 04:00:00 26.5 15 Oeste 21 Oeste 0 -- -- 76
2017-08-03 03:00:00 26.5 13 Noroeste 22 Oeste 0 -- -- 81
2017-08-03 02:00:00 27.3 13 Oeste 18 Oeste 0 -- -- 85
2017-08-03 01:00:00 28.1 9 Oeste 14 Oeste 0 -- -- 83
2017-08-03 00:00:00 28.1 7 Noroeste 12 Noroeste 0 -- -- 84
2017-08-02 23:00:00 28.2 7 Noroeste 14 Noroeste 0 -- -- 85
2017-08-02 22:00:00 28.6 9 Norte 14 Norte 0 -- -- 87
2017-08-02 21:00:00 29.2 8 Nordeste 12 Nordeste 0 -- -- 83
2017-08-02 20:00:00 29.9 7 Este 10 Este 0 -- -- 81
2017-08-02 19:00:00 30.7 7 Nordeste 12 Nordeste 0 -- -- 77
2017-08-02 18:00:00 32 8 Nordeste 13 Nordeste 0 -- -- 75
2017-08-02 17:00:00 31.6 9 Nordeste 15 Nordeste 0 -- -- 75
2017-08-02 16:00:00 29.6 6 Este 17 Sudeste 0 -- -- 78
2017-08-02 15:00:00 28.7 17 Sudeste 20 Sudeste 0 -- -- 82
2017-08-02 14:00:00 29.1 13 Sudeste 15 Sudeste 0 -- -- 78
2017-08-02 13:00:00 29.3 10 Sudeste 14 Sudeste 0 -- -- 74
2017-08-02 12:00:00 30 9 Este 10 Este 0 -- -- 68
2017-08-02 11:00:00 31.9 4 Nordeste 7 Nordeste 0 -- -- 62
2017-08-02 10:00:00 29.6 3 Norte 14 Oeste 0 -- -- 65
2017-08-02 09:00:00 27.2 9 Oeste 13 Oeste 0 -- -- 71
2017-08-02 08:00:00 26.8 10 Oeste 21 Oeste 0 -- -- 74
2017-08-02 07:00:00 26 13 Noroeste 18 Noroeste 0 -- -- 80
2017-08-02 06:00:00 27.3 4 Sudoeste 14 Nordeste 0 -- -- 81
2017-08-02 05:00:00 28.3 8 Nordeste 18 Norte 0 -- -- 75
2017-08-02 04:00:00 28 6 Noroeste 18 Sudoeste 0 -- -- 74
2017-08-02 03:00:00 27.2 12 Noroeste 16 Oeste 0 -- -- 79
2017-08-02 02:00:00 27.8 9 Noroeste 24 Nordeste 0 -- -- 80
2017-08-02 01:00:00 28.1 5 Oeste 27 Sudoeste 0 -- -- 79
2017-08-02 00:00:00 27.7 13 Noroeste 31 Nordeste 0 -- -- 88
2017-08-01 23:00:00 28 7 Nordeste 18 Nordeste 0 -- -- 88
2017-08-01 22:00:00 28.1 12 Nordeste 30 Nordeste 0 -- -- 88
2017-08-01 21:00:00 28.4 10 Noroeste 18 Noroeste 0 -- -- 81
2017-08-01 20:00:00 28.3 5 Nordeste 24 Sudeste 0 -- -- 85
2017-08-01 19:00:00 28.4 22 Sudeste 25 Este 0 -- -- 84
2017-08-01 18:00:00 29.4 3 Nordeste 13 Nordeste 0 -- -- 81
2017-08-01 17:00:00 29.4 8 Nordeste 12 Este 0 -- -- 79
2017-08-01 16:00:00 28 7 Sudeste 16 Sudeste 0 -- -- 80
2017-08-01 15:00:00 27.7 14 Sudeste 20 Sudeste 0 -- -- 84
2017-08-01 14:00:00 27.6 16 Sudeste 20 Sudeste 0 -- -- 87
2017-08-01 13:00:00 28.3 11 Sudeste 18 Este 0 -- -- 85
2017-08-01 12:00:00 29.7 12 Nordeste 15 Nordeste 0 -- -- 78
2017-08-01 11:00:00 28.6 9 Sudeste 16 Este 0 -- -- 76
2017-08-01 10:00:00 29.1 5 Nordeste 14 Sudoeste 0 -- -- 68
2017-08-01 09:00:00 26.3 10 Oeste 23 Oeste 0 -- -- 73
2017-08-01 08:00:00 25.2 10 Oeste 12 Noroeste 0 -- -- 75
2017-08-01 07:00:00 25 11 Oeste 16 Noroeste 0 -- -- 78
2017-08-01 06:00:00 26 6 Oeste 14 Oeste 0 -- -- 81
2017-08-01 05:00:00 25.5 11 Oeste 18 Noroeste 0 -- -- 81
2017-08-01 04:00:00 25.7 18 Noroeste 37 Sur 0 -- -- 83
2017-08-01 03:00:00 26.7 31 Sur 37 Sur 0 -- -- 88
2017-08-01 02:00:00 26.7 5 Sudeste 9 Sur 0 -- -- 83
2017-08-01 01:00:00 27 4 Nordeste 12 Nordeste 0 -- -- 85
2017-08-01 00:00:00 27.3 6 Nordeste 13 Sudeste 0 -- -- 85
2017-07-31 23:00:00 27.6 9 Sudeste 18 Sudeste 0 -- -- 83
2017-07-31 22:00:00 27.5 15 Sudeste 33 Sur 0 -- -- 84
2017-07-31 21:00:00 27.8 31 Sur 39 Sur 0 -- -- 70
2017-07-31 20:00:00 27.7 28 Sudeste 31 Sudeste 0 -- -- 84
2017-07-31 19:00:00 27.8 25 Sudeste 29 Sudeste 0 -- -- 85
2017-07-31 18:00:00 27.9 23 Sudeste 25 Sudeste 0 -- -- 83
2017-07-31 17:00:00 28.7 16 Este 21 Este 0 -- -- 79
2017-07-31 16:00:00 28.5 19 Este 23 Este 0 -- -- 81
2017-07-31 15:00:00 28.3 21 Este 24 Este 0 -- -- 82
2017-07-31 14:00:00 28.1 19 Este 22 Este 0 -- -- 83
2017-07-31 13:00:00 28.4 14 Este 17 Este 0 -- -- 81
2017-07-31 12:00:00 29.3 13 Este 17 Este 0 -- -- 75
2017-07-31 11:00:00 30 6 Nordeste 10 Nordeste 0 -- -- 66
2017-07-31 10:00:00 28.3 3 Norte 10 Noroeste 0 -- -- 63
2017-07-31 09:00:00 25.3 8 Noroeste 11 Oeste 0 -- -- 70
2017-07-31 08:00:00 24.2 6 Oeste 15 Oeste 0 -- -- 72
2017-07-31 07:00:00 23.8 13 Oeste 18 Oeste 0 -- -- 79
2017-07-31 06:00:00 24 9 Noroeste 13 Noroeste 0 -- -- 81
2017-07-31 05:00:00 24.5 8 Oeste 17 Noroeste 0 -- -- 82
2017-07-31 04:00:00 25.1 14 Noroeste 19 Oeste 0 -- -- 80
2017-07-31 03:00:00 24.7 14 Oeste 18 Oeste 0 -- -- 86
2017-07-31 02:00:00 25.2 12 Oeste 16 Oeste 0 -- -- 85
2017-07-31 01:00:00 25.8 7 Noroeste 15 Sur 0 -- -- 86
2017-07-31 00:00:00 26.7 14 Sudeste 21 Sur 0 -- -- 87
2017-07-30 23:00:00 26.9 17 Sudeste 19 Sudeste 0 -- -- 84
2017-07-30 22:00:00 27.3 11 Sudeste 17 Sudeste 0 -- -- 82
2017-07-30 21:00:00 27.7 14 Este 20 Este 0 -- -- 80
2017-07-30 20:00:00 28.1 19 Este 22 Este 0 -- -- 79
2017-07-30 19:00:00 28.3 18 Este 22 Este 0 -- -- 75
2017-07-30 18:00:00 28.5 19 Este 26 Este 0 -- -- 71
2017-07-30 17:00:00 28.3 22 Este 27 Sudeste 0 -- -- 71
2017-07-30 16:00:00 28.2 23 Sudeste 29 Sudeste 0 -- -- 73
2017-07-30 15:00:00 27.8 26 Sudeste 29 Sudeste 0 -- -- 71
2017-07-30 14:00:00 26.9 24 Sudeste 29 Sudeste 0 -- -- 87
2017-07-30 13:00:00 27 24 Sudeste 28 Sudeste 0 -- -- 85
2017-07-30 12:00:00 27.7 17 Sudeste 19 Sudeste 0 -- -- 74
2017-07-30 11:00:00 28.1 8 Este 10 Este 0 -- -- 64
2017-07-30 10:00:00 29.7 0 Calma 9 Noroeste 0 -- -- 52
2017-07-30 09:00:00 25.1 8 Noroeste 16 Oeste 0 -- -- 65
2017-07-30 08:00:00 23.2 15 Oeste 18 Oeste 0 -- -- 73
2017-07-30 07:00:00 23 7 Noroeste 14 Oeste 0 -- -- 72
2017-07-30 06:00:00 24.1 7 Noroeste 15 Oeste 0 -- -- 74
2017-07-30 05:00:00 23.5 8 Noroeste 10 Noroeste 0 -- -- 82
2017-07-30 04:00:00 25 5 Sudoeste 13 Oeste 0 -- -- 91
2017-07-30 03:00:00 24.6 9 Noroeste 10 Noroeste 0 -- -- 93
2017-07-30 02:00:00 25.2 8 Noroeste 10 Oeste 0 -- -- 93
2017-07-30 01:00:00 26.5 9 Sur 10 Sur 0 -- -- 94
2017-07-30 00:00:00 26.6 6 Sudeste 8 Sudeste 0 -- -- 92
2017-07-29 23:00:00 26.7 3 Este 8 Nordeste 0 -- -- 91
2017-07-29 22:00:00 26.9 6 Este 15 Este 0 -- -- 91
2017-07-29 21:00:00 27.3 14 Este 20 Este 0 -- -- 90
2017-07-29 20:00:00 27.7 18 Sudeste 22 Este 0 -- -- 88
2017-07-29 19:00:00 28 17 Sudeste 21 Este 0 -- -- 86
2017-07-29 18:00:00 28 18 Este 22 Este 0 -- -- 85
2017-07-29 17:00:00 27.9 19 Este 23 Sudeste 0 -- -- 85
2017-07-29 16:00:00 28.1 21 Sudeste 24 Sudeste 0 -- -- 85
2017-07-29 15:00:00 28.1 19 Sudeste 24 Este 0 -- -- 85
2017-07-29 14:00:00 27.9 19 Sudeste 23 Este 0 -- -- 86
2017-07-29 13:00:00 27.4 18 Sudeste 21 Sudeste 0 -- -- 85
2017-07-29 12:00:00 28.2 14 Sudeste 17 Sudeste 0 -- -- 74
2017-07-29 11:00:00 31.4 6 Nordeste 8 Nordeste 0 -- -- 50
2017-07-29 10:00:00 28.2 6 Noroeste 13 Noroeste 0 -- -- 49
2017-07-29 09:00:00 25.3 10 Oeste 13 Noroeste 0 -- -- 57
2017-07-29 08:00:00 24.4 6 Noroeste 11 Oeste 0 -- -- 59
2017-07-29 07:00:00 24.1 5 Noroeste 15 Oeste 0 -- -- 61
2017-07-29 06:00:00 24.4 4 Noroeste 16 Oeste 0 -- -- 62
2017-07-29 05:00:00 25.2 12 Oeste 16 Oeste 0 -- -- 59
2017-07-29 04:00:00 24.6 10 Oeste 13 Noroeste 0 -- -- 62
2017-07-29 03:00:00 25.2 7 Noroeste 16 Oeste 0 -- -- 64
2017-07-29 02:00:00 25.6 12 Oeste 17 Oeste 0 -- -- 70
2017-07-29 01:00:00 25.8 11 Oeste 15 Oeste 0 -- -- 71
2017-07-29 00:00:00 25.7 8 Oeste 10 Oeste 0 -- -- 76
2017-07-28 23:00:00 26.5 0 Calma 3 Sudeste 0 -- -- 80
2017-07-28 22:00:00 26.8 3 Sudeste 8 Este 0 -- -- 80
2017-07-28 21:00:00 27.2 8 Este 18 Este 0 -- -- 77
2017-07-28 20:00:00 27.6 17 Sudeste 24 Sudeste 0 -- -- 78
2017-07-28 19:00:00 27.7 22 Este 27 Este 0 -- -- 75
2017-07-28 18:00:00 27.4 24 Este 27 Este 0 -- -- 81
2017-07-28 17:00:00 27.5 22 Este 25 Este 0 -- -- 78
2017-07-28 16:00:00 27.6 21 Sudeste 26 Sudeste 0 -- -- 80
2017-07-28 15:00:00 26.9 23 Sudeste 27 Sudeste 0 -- -- 85
2017-07-28 14:00:00 27.5 25 Sudeste 29 Sudeste 0 -- -- 84
2017-07-28 13:00:00 27.7 17 Sudeste 21 Sudeste 0 -- -- 76
2017-07-28 12:00:00 27.6 17 Este 19 Este 0 -- -- 75
2017-07-28 11:00:00 27.3 17 Este 19 Este 0 -- -- 77
2017-07-28 10:00:00 28.1 6 Norte 13 Noroeste 0 -- -- 58
2017-07-28 09:00:00 25.2 8 Noroeste 15 Oeste 0 -- -- 64
2017-07-28 08:00:00 24.2 9 Oeste 16 Oeste 0 -- -- 68
2017-07-28 07:00:00 23 5 Oeste 10 Oeste 0 -- -- 72
2017-07-28 06:00:00 23.9 3 Oeste 6 Sudoeste 0 -- -- 74
2017-07-28 05:00:00 24 5 Oeste 11 Oeste 0 -- -- 74
2017-07-28 04:00:00 24.1 4 Oeste 9 Noroeste 0 -- -- 73
2017-07-28 03:00:00 25.4 8 Oeste 17 Sudoeste 0 -- -- 68
2017-07-28 02:00:00 25.1 9 Sudoeste 17 Sudoeste 0 -- -- 72
2017-07-28 01:00:00 25.7 8 Oeste 14 Oeste 0 -- -- 73
2017-07-28 00:00:00 26.1 5 Oeste 6 Sudoeste 0 -- -- 75
2017-07-27 23:00:00 26.4 3 Sudoeste 4 Oeste 0 -- -- 78
2017-07-27 22:00:00 26.6 0 Calma 8 Este 0 -- -- 78
2017-07-27 21:00:00 26.9 8 Este 16 Este 0 -- -- 77
2017-07-27 20:00:00 27.4 14 Sudeste 23 Este 0 -- -- 78
2017-07-27 19:00:00 27.4 21 Este 25 Este 0 -- -- 75
2017-07-27 18:00:00 27.6 22 Sudeste 27 Este 0 -- -- 76
2017-07-27 17:00:00 27.3 25 Sudeste 29 Sudeste 0 -- -- 80
2017-07-27 16:00:00 27.5 25 Este 28 Sudeste 0 -- -- 78
2017-07-27 15:00:00 27.2 24 Sudeste 28 Sudeste 0 -- -- 79
2017-07-27 14:00:00 27.1 23 Sudeste 26 Sudeste 0 -- -- 80
2017-07-27 13:00:00 26.9 19 Este 22 Este 0 -- -- 84
2017-07-27 12:00:00 28.1 12 Nordeste 15 Nordeste 0 -- -- 78
2017-07-27 11:00:00 27.2 7 Este 11 Nordeste 0 -- -- 79
2017-07-27 10:00:00 26.4 4 Noroeste 10 Noroeste 0 -- -- 81
2017-07-27 09:00:00 24.6 5 Noroeste 11 Oeste 0 -- -- 84
2017-07-27 08:00:00 23.9 8 Oeste 10 Oeste 0 -- -- 87
2017-07-27 07:00:00 23.9 5 Noroeste 13 Sudoeste 0 -- -- 87
2017-07-27 06:00:00 24.3 5 Oeste 10 Oeste 0 -- -- 89
2017-07-27 05:00:00 24.9 6 Sudoeste 8 Sudoeste 0 -- -- 88
2017-07-27 04:00:00 24.9 6 Sudoeste 10 Sudoeste 0 -- -- 88
2017-07-27 03:00:00 25.5 5 Sudeste 8 Sudeste 0 -- -- 89
2017-07-27 02:00:00 25.5 4 Sudeste 7 Este 0 -- -- 88
2017-07-27 01:00:00 25.6 6 Sudeste 14 Sudeste 0 -- -- 89
2017-07-27 00:00:00 25.7 13 Sudeste 17 Sudeste 0 -- -- 88
2017-07-26 23:00:00 26 15 Sudeste 20 Sudeste 0 -- -- 87
2017-07-26 22:00:00 26.1 17 Sudeste 23 Sudeste 0 -- -- 85
2017-07-26 21:00:00 26.3 20 Sudeste 27 Sudeste 0 -- -- 84
2017-07-26 20:00:00 26.4 25 Sudeste 31 Sudeste 0 -- -- 83
2017-07-26 19:00:00 26.5 28 Sudeste 35 Sudeste 0 -- -- 83
2017-07-26 18:00:00 26.4 32 Sudeste 36 Sudeste 0 -- -- 83
2017-07-26 17:00:00 26.6 32 Sudeste 36 Sudeste 0 -- -- 82
2017-07-26 16:00:00 26.5 32 Sudeste 36 Sudeste 0 -- -- 81
2017-07-26 15:00:00 26.6 30 Sudeste 33 Sudeste 0 -- -- 83
2017-07-26 14:00:00 27 24 Sudeste 28 Sudeste 0 -- -- 82
2017-07-26 13:00:00 27.3 22 Sudeste 26 Sudeste 0 -- -- 78
2017-07-26 12:00:00 27.5 15 Este 20 Este 0 -- -- 76
2017-07-26 11:00:00 27.9 7 Este 12 Este 0 -- -- 73
2017-07-26 10:00:00 28.6 3 Este 5 Noroeste 0 -- -- 69
2017-07-26 09:00:00 26.7 4 Noroeste 8 Noroeste 0 -- -- 76
2017-07-26 08:00:00 25.6 5 Noroeste 11 Nordeste 0 -- -- 80
2017-07-26 07:00:00 25.7 7 Nordeste 13 Nordeste 0 -- -- 80
2017-07-26 06:00:00 25.8 9 Nordeste 14 Nordeste 0 -- -- 82
2017-07-26 05:00:00 25.6 5 Nordeste 10 Este 0 -- -- 83
2017-07-26 04:00:00 25.8 5 Nordeste 12 Nordeste 0 -- -- 83
2017-07-26 03:00:00 26 7 Nordeste 17 Nordeste 0 -- -- 81
2017-07-26 02:00:00 26 12 Nordeste 18 Nordeste 0 -- -- 82
2017-07-26 01:00:00 26.1 14 Nordeste 21 Este 0 -- -- 83
2017-07-26 00:00:00 26.2 17 Nordeste 22 Este 0 -- -- 83
2017-07-25 23:00:00 26.7 14 Nordeste 18 Este 0 -- -- 82
2017-07-25 22:00:00 26.5 12 Nordeste 16 Nordeste 0 -- -- 80
2017-07-25 21:00:00 26.6 12 Este 17 Este 0 -- -- 79
2017-07-25 20:00:00 26.9 13 Este 22 Este 0 -- -- 79
2017-07-25 19:00:00 27 18 Este 24 Este 0 -- -- 80
2017-07-25 18:00:00 27 19 Este 24 Este 0 -- -- 80
2017-07-25 17:00:00 27 20 Este 26 Este 0 -- -- 79
2017-07-25 16:00:00 27 21 Este 28 Este 0 -- -- 79
2017-07-25 15:00:00 27.2 24 Este 27 Este 0 -- -- 78
2017-07-25 14:00:00 27.3 21 Este 24 Este 0 -- -- 77
2017-07-25 13:00:00 28.8 18 Nordeste 25 Nordeste 0 -- -- 70
2017-07-25 12:00:00 28.2 19 Nordeste 24 Nordeste 0 -- -- 70
2017-07-25 11:00:00 27.5 15 Nordeste 22 Nordeste 0 -- -- 72
2017-07-25 10:00:00 27.1 11 Norte 17 Nordeste 0 -- -- 73
2017-07-25 09:00:00 24.8 11 Noroeste 16 Noroeste 0 -- -- 74
2017-07-25 08:00:00 23.3 9 Noroeste 13 Oeste 0 -- -- 75
2017-07-25 07:00:00 23 8 Noroeste 17 Oeste 0 -- -- 77
2017-07-25 06:00:00 23.1 13 Oeste 18 Oeste 0 -- -- 77
2017-07-25 05:00:00 23.2 13 Oeste 17 Oeste 0 -- -- 79
2017-07-25 04:00:00 23.1 12 Oeste 15 Oeste 0 -- -- 81
2017-07-25 03:00:00 23.2 10 Oeste 13 Oeste 0 -- -- 84
2017-07-25 02:00:00 24.3 8 Oeste 9 Oeste 0 -- -- 83
2017-07-25 01:00:00 24.8 4 Noroeste 9 Este 0 -- -- 82
2017-07-25 00:00:00 25.4 5 Nordeste 7 Nordeste 0 -- -- 81
2017-07-24 23:00:00 25.4 2 Sudeste 9 Sudeste 0 -- -- 80
2017-07-24 22:00:00 25.7 7 Este 13 Este 0 -- -- 78
2017-07-24 21:00:00 26 12 Este 17 Sudeste 0 -- -- 77
2017-07-24 20:00:00 26.4 15 Sudeste 19 Sudeste 0 -- -- 74
2017-07-24 19:00:00 26.7 15 Sudeste 23 Sudeste 0 -- -- 72
2017-07-24 18:00:00 26.3 20 Sudeste 24 Sudeste 0 -- -- 73
2017-07-24 17:00:00 26.3 19 Sudeste 25 Sudeste 0 -- -- 72
2017-07-24 16:00:00 26 21 Sudeste 24 Sudeste 0 -- -- 76
2017-07-24 15:00:00 26.5 19 Sudeste 22 Sudeste 0 -- -- 77
2017-07-24 14:00:00 26.8 18 Este 22 Este 0 -- -- 78
2017-07-24 13:00:00 26.3 19 Este 22 Este 0 -- -- 77
2017-07-24 12:00:00 26.2 17 Este 22 Este 0 -- -- 79
2017-07-24 11:00:00 25.8 15 Sudeste 18 Sudeste 0 -- -- 82
2017-07-24 10:00:00 27.9 4 Nordeste 7 Nordeste 0 -- -- 66
2017-07-24 09:00:00 24.3 4 Noroeste 14 Oeste 0 -- -- 71
2017-07-24 08:00:00 22.8 13 Oeste 16 Oeste 0 -- -- 78
2017-07-24 07:00:00 21.9 10 Noroeste 19 Oeste 0 -- -- 85
2017-07-24 06:00:00 22.3 12 Oeste 15 Oeste 0 -- -- 74
2017-07-24 05:00:00 22.7 9 Oeste 17 Oeste 0 -- -- 85
2017-07-24 04:00:00 23.5 10 Oeste 15 Oeste 0 -- -- 84
2017-07-24 03:00:00 24 11 Oeste 15 Oeste 0 -- -- 84
2017-07-24 02:00:00 24.8 5 Oeste 6 Oeste 0 -- -- 78
2017-07-24 01:00:00 24.8 5 Noroeste 10 Noroeste 0 -- -- 79
2017-07-24 00:00:00 25 3 Sur 18 Sudeste 0 -- -- 81
2017-07-23 23:00:00 25.7 17 Sudeste 23 Sudeste 0 -- -- 76
2017-07-23 22:00:00 25.6 21 Sudeste 27 Sur 0 -- -- 83
2017-07-23 21:00:00 26.1 22 Sudeste 30 Sudeste 0 -- -- 82
2017-07-23 20:00:00 26.4 27 Sudeste 32 Sudeste 0 -- -- 83
2017-07-23 19:00:00 26.3 28 Sudeste 31 Sudeste 0 -- -- 83
2017-07-23 18:00:00 26.4 23 Sudeste 27 Sudeste 0 -- -- 81
2017-07-23 17:00:00 26.5 19 Sudeste 25 Sudeste 0 -- -- 82
2017-07-23 16:00:00 27.2 17 Este 21 Este 0 -- -- 80
2017-07-23 15:00:00 27.1 18 Este 25 Este 0 -- -- 82
2017-07-23 14:00:00 26.8 20 Este 26 Este 0 -- -- 83
2017-07-23 13:00:00 26.6 22 Este 25 Este 0 -- -- 83
2017-07-23 12:00:00 26.7 14 Este 21 Este 0 -- -- 80
2017-07-23 11:00:00 27.5 4 Norte 10 Nordeste 0 -- -- 75
2017-07-23 10:00:00 25.9 3 Noroeste 7 Noroeste 0 -- -- 79
2017-07-23 09:00:00 24.8 2 Noroeste 11 Noroeste 0 -- -- 82
2017-07-23 08:00:00 24.1 4 Noroeste 14 Sudoeste 0 -- -- 81
2017-07-23 07:00:00 24.5 4 Oeste 14 Oeste 0 -- -- 81
2017-07-23 06:00:00 24.2 8 Oeste 22 Sudoeste 0 -- -- 83
2017-07-23 05:00:00 24.6 4 Noroeste 7 Noroeste 0 -- -- 85
2017-07-23 04:00:00 24.5 0 Calma 8 Oeste 0 -- -- 85
2017-07-23 03:00:00 24.9 6 Noroeste 21 Este 0 -- -- 86
2017-07-23 02:00:00 25.4 15 Este 21 Este 0 -- -- 83
2017-07-23 01:00:00 24.6 13 Oeste 28 Oeste 0 -- -- 82
2017-07-23 00:00:00 24.4 9 Noroeste 14 Noroeste 0 -- -- 82
2017-07-22 23:00:00 25.1 0 Calma 9 Este 0 -- -- 81
2017-07-22 22:00:00 25.1 4 Este 13 Este 0 -- -- 81
2017-07-22 21:00:00 25.4 10 Este 19 Este 0 -- -- 80
2017-07-22 20:00:00 26 13 Este 23 Sudeste 0 -- -- 79
2017-07-22 19:00:00 26.1 17 Este 20 Este 0 -- -- 80
2017-07-22 18:00:00 26.2 14 Este 20 Este 0 -- -- 79
2017-07-22 17:00:00 25.7 18 Sudeste 24 Sudeste 0 -- -- 82
2017-07-22 16:00:00 26 20 Sudeste 24 Sudeste 0 -- -- 82
2017-07-22 15:00:00 27 14 Sudeste 18 Este 0 -- -- 74
2017-07-22 14:00:00 26.6 9 Sudeste 19 Este 0 -- -- 78
2017-07-22 13:00:00 26.4 17 Este 21 Este 0 -- -- 80
2017-07-22 12:00:00 27.4 14 Este 18 Este 0 -- -- 76
2017-07-22 11:00:00 27.6 13 Nordeste 19 Nordeste 0 -- -- 75
2017-07-22 10:00:00 27.8 5 Nordeste 11 Oeste 0 -- -- 64
2017-07-22 09:00:00 24.8 6 Oeste 16 Oeste 0 -- -- 63
2017-07-22 08:00:00 22.7 13 Oeste 16 Oeste 0 -- -- 68
2017-07-22 07:00:00 22.3 10 Oeste 17 Oeste 0 -- -- 73
2017-07-22 06:00:00 22.9 9 Oeste 12 Oeste 0 -- -- 70
2017-07-22 05:00:00 24.4 4 Sur 9 Oeste 0 -- -- 74
2017-07-22 04:00:00 23.5 6 Oeste 13 Oeste 0 -- -- 68
2017-07-22 03:00:00 23.9 11 Oeste 14 Oeste 0 -- -- 70
2017-07-22 02:00:00 24.4 10 Oeste 16 Oeste 0 -- -- 76
2017-07-22 01:00:00 24.5 8 Oeste 10 Noroeste 0 -- -- 81
2017-07-22 00:00:00 25 3 Oeste 13 Noroeste 0 -- -- 81
2017-07-21 23:00:00 25.6 3 Nordeste 12 Nordeste 0 -- -- 81
2017-07-21 22:00:00 25.6 7 Nordeste 15 Nordeste 0 -- -- 81
2017-07-21 21:00:00 26.1 18 Este 28 Este 0 -- -- 78
2017-07-21 20:00:00 27.1 22 Nordeste 30 Sudeste 0 -- -- 77
2017-07-21 19:00:00 26.4 27 Sudeste 36 Sudeste 0 -- -- 78
2017-07-21 18:00:00 25.7 32 Sudeste 37 Sudeste 0 -- -- 82
2017-07-21 17:00:00 25.4 30 Sudeste 36 Sudeste 0 -- -- 81
2017-07-21 16:00:00 25.5 31 Sudeste 36 Sur 0 -- -- 77
2017-07-21 15:00:00 25.7 27 Sudeste 32 Sudeste 0 -- -- 81
2017-07-21 14:00:00 25 27 Sudeste 31 Sur 0 -- -- 86
2017-07-21 13:00:00 25.2 24 Sudeste 27 Sur 0 -- -- 85
2017-07-21 12:00:00 25.4 18 Sudeste 23 Sudeste 0 -- -- 85
2017-07-21 11:00:00 26.4 14 Sudeste 15 Sudeste 0 -- -- 78
2017-07-21 10:00:00 27.7 3 Este 8 Noroeste 0 -- -- 71
2017-07-21 09:00:00 25 7 Noroeste 15 Oeste 0 -- -- 78
2017-07-21 08:00:00 23 12 Oeste 19 Noroeste 0 -- -- 86
2017-07-21 07:00:00 24.2 4 Oeste 10 Oeste 0 -- -- 83
2017-07-21 06:00:00 23.6 6 Oeste 14 Oeste 0 -- -- 85
2017-07-21 05:00:00 23.6 10 Noroeste 17 Noroeste 0 -- -- 88
2017-07-21 04:00:00 24.1 8 Oeste 10 Oeste 0 -- -- 88
2017-07-21 03:00:00 24.4 6 Noroeste 10 Nordeste 0 -- -- 87
2017-07-21 02:00:00 25 7 Nordeste 17 Nordeste 0 -- -- 87
2017-07-21 01:00:00 24.8 5 Norte 13 Nordeste 0 -- -- 89
2017-07-21 00:00:00 25.2 9 Norte 14 Nordeste 0 -- -- 88
2017-07-20 23:00:00 25.1 7 Norte 12 Nordeste 0 -- -- 86
2017-07-20 22:00:00 25.5 8 Nordeste 20 Nordeste 0 -- -- 85
2017-07-20 21:00:00 25.9 18 Nordeste 27 Nordeste 0 -- -- 84
2017-07-20 20:00:00 26.6 22 Nordeste 29 Nordeste 0 -- -- 84
2017-07-20 19:00:00 26.7 23 Nordeste 38 Nordeste 0 -- -- 83
2017-07-20 18:00:00 26.7 31 Nordeste 37 Nordeste 0 -- -- 84
2017-07-20 17:00:00 26.8 22 Este 26 Sudeste 0 -- -- 86
2017-07-20 16:00:00 26.8 20 Sudeste 32 Sudeste 0 -- -- 83
2017-07-20 15:00:00 25.8 28 Sur 36 Sudeste 0 -- -- 89
2017-07-20 14:00:00 25.5 32 Sudeste 37 Sur 0 -- -- 87
2017-07-20 13:00:00 25.4 31 Sudeste 33 Sudeste 0 -- -- 88
2017-07-20 12:00:00 27.1 22 Sudeste 26 Sur 0 -- -- 79
2017-07-20 11:00:00 31.3 5 Noroeste 15 Oeste 0 -- -- 46
2017-07-20 10:00:00 27.1 7 Noroeste 13 Noroeste 0 -- -- 70
2017-07-20 09:00:00 25.1 6 Noroeste 15 Oeste 0 -- -- 82
2017-07-20 08:00:00 23.2 9 Oeste 14 Sudoeste 0 -- -- 84
2017-07-20 07:00:00 22.7 12 Sudoeste 19 Sur 0 -- -- 86
2017-07-20 06:00:00 24.6 17 Sudeste 21 Sur 0 -- -- 90
2017-07-20 05:00:00 23.3 4 Sudoeste 13 Noroeste 0 -- -- 89
2017-07-20 04:00:00 23.4 9 Noroeste 14 Noroeste 0 -- -- 90
2017-07-20 03:00:00 24.2 6 Oeste 9 Oeste 0 -- -- 89
2017-07-20 02:00:00 25 3 Sur 7 Sur 0 -- -- 88
2017-07-20 01:00:00 25 3 Sudeste 6 Nordeste 0 -- -- 88
2017-07-20 00:00:00 25.1 6 Norte 18 Norte 0 -- -- 89
2017-07-19 23:00:00 25.1 11 Norte 18 Norte 0 -- -- 90
2017-07-19 22:00:00 25.2 14 Norte 27 Nordeste 0 -- -- 90
2017-07-19 21:00:00 26 21 Norte 35 Norte 0 -- -- 87
2017-07-19 20:00:00 27.8 31 Sudeste 46 Sudeste 0 -- -- 71
2017-07-19 19:00:00 26.8 36 Sudeste 48 Sur 0 -- -- 81
2017-07-19 18:00:00 26.2 42 Sur 57 Sur 0 -- -- 86
2017-07-19 17:00:00 26.2 48 Sur 60 Sur 0 -- -- 86
2017-07-19 16:00:00 26.3 44 Sur 55 Sur 0 -- -- 84
2017-07-19 15:00:00 26.4 40 Sur 50 Sur 0 -- -- 84
2017-07-19 14:00:00 26.5 38 Sudeste 45 Sudeste 0 -- -- 83
2017-07-19 13:00:00 26.4 28 Sudeste 34 Sudeste 0 -- -- 83
2017-07-19 12:00:00 26.2 27 Sudeste 32 Sudeste 0 -- -- 85
2017-07-19 11:00:00 27.3 14 Sudeste 25 Sudeste 0 -- -- 77
2017-07-19 10:00:00 27.2 16 Sudeste 21 Sudeste 0 -- -- 70
2017-07-19 09:00:00 26.8 7 Oeste 28 Sur 0 -- -- 56
2017-07-19 08:00:00 26 16 Sur 21 Sur 0 -- -- 70
2017-07-19 07:00:00 25.7 8 Nordeste 15 Nordeste 0 -- -- 58
2017-07-19 06:00:00 24.8 6 Noroeste 12 Noroeste 0 -- -- 65
2017-07-19 05:00:00 25.2 6 Noroeste 13 Noroeste 0 -- -- 63
2017-07-19 04:00:00 25.3 12 Oeste 21 Noroeste 0 -- -- 67
2017-07-19 03:00:00 25.5 14 Noroeste 20 Noroeste 0 -- -- 76
2017-07-19 02:00:00 25.7 6 Noroeste 15 Sudoeste 0 -- -- 75
2017-07-19 01:00:00 25.9 7 Sudoeste 12 Oeste 0 -- -- 78
2017-07-19 00:00:00 25.9 6 Oeste 10 Oeste 0 -- -- 82